KLBL

Liberal Mid-America Regional Airport

Liberal, Kansas, USA
METAR KLBL 230756Z AUTO 23006KT 10SM CLR M02/M04 A3010 RMK AO2 SLP214 T10221039 FZRANO
Observed Flight Rules
Feb-23 @ 07:56 UTC (34 minutes ago) Visual Flight Rules
Wind Visibility Clouds
230° at 6 knots 10 miles
  • Clear skies
Temperatures Readings
Current -2°C / 28°F
Dewpoint -4°C / 25°F
Humidity 86%
Altimeter 30.1" Hg
Pressure 1021.4 hPa
Elevation 879
METAR KLBL 230756Z AUTO 23006KT 10SM CLR M02/M04 A3010 RMK AO2 SLP214 T10221039 FZRANO
Observed Flight Rules
Feb-23 @ 07:56 UTC
(34 minutes ago)
VFR
Wind Visibility
230° at 6 knots 10 miles
Clouds
  • Clear skies
Temperature Dewpoint
-2°C / 28°F -4°C / 25°F
Humidity Altimeter Pressure
86% 30.1" Hg 1021.4 hPa